sensor_id;sensor_type;location;lat;lon;timestamp;temperature;humidity
8400;DHT22;4237;47.030;15.396;2024-01-27T00:00:51;1.30;99.90
8400;DHT22;4237;47.030;15.396;2024-01-27T00:03:19;1.30;99.90
8400;DHT22;4237;47.030;15.396;2024-01-27T00:05:48;1.40;99.90
8400;DHT22;4237;47.030;15.396;2024-01-27T00:08:16;1.40;99.90
8400;DHT22;4237;47.030;15.396;2024-01-27T00:10:45;1.40;99.90
8400;DHT22;4237;47.030;15.396;2024-01-27T00:13:13;1.60;99.90
8400;DHT22;4237;47.030;15.396;2024-01-27T00:15:42;1.60;99.90
8400;DHT22;4237;47.030;15.396;2024-01-27T00:18:11;1.50;99.90
8400;DHT22;4237;47.030;15.396;2024-01-27T00:20:39;1.40;99.90
8400;DHT22;4237;47.030;15.396;2024-01-27T00:23:08;1.30;99.90
8400;DHT22;4237;47.030;15.396;2024-01-27T00:25:36;1.30;99.90
8400;DHT22;4237;47.030;15.396;2024-01-27T00:28:05;1.30;99.90
8400;DHT22;4237;47.030;15.396;2024-01-27T00:30:33;1.10;99.90
8400;DHT22;4237;47.030;15.396;2024-01-27T00:33:02;1.20;99.90
8400;DHT22;4237;47.030;15.396;2024-01-27T00:35:31;1.00;99.90
8400;DHT22;4237;47.030;15.396;2024-01-27T00:37:59;1.00;99.90
8400;DHT22;4237;47.030;15.396;2024-01-27T00:40:28;1.00;99.90
8400;DHT22;4237;47.030;15.396;2024-01-27T00:42:57;0.90;99.90
8400;DHT22;4237;47.030;15.396;2024-01-27T00:45:26;0.90;99.90
8400;DHT22;4237;47.030;15.396;2024-01-27T00:47:56;0.80;99.90
8400;DHT22;4237;47.030;15.396;2024-01-27T00:50:25;0.80;99.90
8400;DHT22;4237;47.030;15.396;2024-01-27T00:52:54;0.80;99.90
8400;DHT22;4237;47.030;15.396;2024-01-27T00:55:22;0.70;99.90
8400;DHT22;4237;47.030;15.396;2024-01-27T00:57:51;0.70;99.90
8400;DHT22;4237;47.030;15.396;2024-01-27T01:00:21;0.80;99.90
8400;DHT22;4237;47.030;15.396;2024-01-27T01:02:49;0.80;99.90
8400;DHT22;4237;47.030;15.396;2024-01-27T01:05:18;0.90;99.90
8400;DHT22;4237;47.030;15.396;2024-01-27T01:07:46;1.00;99.90
8400;DHT22;4237;47.030;15.396;2024-01-27T01:10:15;1.20;99.90
8400;DHT22;4237;47.030;15.396;2024-01-27T01:12:43;1.50;99.90
8400;DHT22;4237;47.030;15.396;2024-01-27T01:15:12;1.80;99.90
8400;DHT22;4237;47.030;15.396;2024-01-27T01:17:41;2.20;99.90
8400;DHT22;4237;47.030;15.396;2024-01-27T01:20:10;2.80;99.90
8400;DHT22;4237;47.030;15.396;2024-01-27T01:22:39;3.40;99.90
8400;DHT22;4237;47.030;15.396;2024-01-27T01:25:07;4.10;99.90
8400;DHT22;4237;47.030;15.396;2024-01-27T01:27:36;4.30;99.90
8400;DHT22;4237;47.030;15.396;2024-01-27T01:30:05;4.90;99.90
8400;DHT22;4237;47.030;15.396;2024-01-27T01:32:34;5.20;99.90
8400;DHT22;4237;47.030;15.396;2024-01-27T01:35:03;5.40;99.90
8400;DHT22;4237;47.030;15.396;2024-01-27T01:37:32;5.50;99.90
8400;DHT22;4237;47.030;15.396;2024-01-27T01:40:00;5.50;99.90
8400;DHT22;4237;47.030;15.396;2024-01-27T01:42:30;5.60;99.90
8400;DHT22;4237;47.030;15.396;2024-01-27T01:44:59;5.50;99.90
8400;DHT22;4237;47.030;15.396;2024-01-27T01:47:28;5.50;99.90
8400;DHT22;4237;47.030;15.396;2024-01-27T01:49:57;5.50;99.90
8400;DHT22;4237;47.030;15.396;2024-01-27T01:52:26;5.50;99.90
8400;DHT22;4237;47.030;15.396;2024-01-27T01:54:55;5.50;99.90
8400;DHT22;4237;47.030;15.396;2024-01-27T01:57:23;5.40;99.90
8400;DHT22;4237;47.030;15.396;2024-01-27T01:59:52;5.50;99.90
8400;DHT22;4237;47.030;15.396;2024-01-27T02:02:20;5.60;99.90
8400;DHT22;4237;47.030;15.396;2024-01-27T02:04:49;5.70;99.90
8400;DHT22;4237;47.030;15.396;2024-01-27T02:07:17;5.60;99.90
8400;DHT22;4237;47.030;15.396;2024-01-27T02:09:46;5.70;99.90
8400;DHT22;4237;47.030;15.396;2024-01-27T02:12:14;5.70;99.90
8400;DHT22;4237;47.030;15.396;2024-01-27T02:14:43;5.90;99.90
8400;DHT22;4237;47.030;15.396;2024-01-27T02:17:12;6.00;99.90
8400;DHT22;4237;47.030;15.396;2024-01-27T02:19:40;5.10;99.90
8400;DHT22;4237;47.030;15.396;2024-01-27T02:22:09;6.20;99.90
8400;DHT22;4237;47.030;15.396;2024-01-27T02:24:37;6.00;99.90
8400;DHT22;4237;47.030;15.396;2024-01-27T02:27:06;6.10;99.90
8400;DHT22;4237;47.030;15.396;2024-01-27T02:29:34;6.00;99.90
8400;DHT22;4237;47.030;15.396;2024-01-27T02:32:03;6.00;99.90
8400;DHT22;4237;47.030;15.396;2024-01-27T02:34:32;6.00;99.90
8400;DHT22;4237;47.030;15.396;2024-01-27T02:37:00;5.90;99.90
8400;DHT22;4237;47.030;15.396;2024-01-27T02:39:29;5.80;99.90
8400;DHT22;4237;47.030;15.396;2024-01-27T02:41:57;5.60;99.90
8400;DHT22;4237;47.030;15.396;2024-01-27T02:44:26;5.50;99.90
8400;DHT22;4237;47.030;15.396;2024-01-27T02:46:55;5.50;99.90
8400;DHT22;4237;47.030;15.396;2024-01-27T02:49:23;5.60;99.90
8400;DHT22;4237;47.030;15.396;2024-01-27T02:51:52;5.60;99.90
8400;DHT22;4237;47.030;15.396;2024-01-27T02:54:20;5.50;99.90
8400;DHT22;4237;47.030;15.396;2024-01-27T02:56:49;5.40;99.90
8400;DHT22;4237;47.030;15.396;2024-01-27T02:59:17;5.40;99.90
8400;DHT22;4237;47.030;15.396;2024-01-27T03:01:46;5.20;99.90
8400;DHT22;4237;47.030;15.396;2024-01-27T03:04:14;5.20;99.90
8400;DHT22;4237;47.030;15.396;2024-01-27T03:06:43;5.10;99.90
8400;DHT22;4237;47.030;15.396;2024-01-27T03:09:12;5.20;99.90
8400;DHT22;4237;47.030;15.396;2024-01-27T03:11:41;5.10;99.90
8400;DHT22;4237;47.030;15.396;2024-01-27T03:14:09;5.30;99.90
8400;DHT22;4237;47.030;15.396;2024-01-27T03:16:38;5.30;99.90
8400;DHT22;4237;47.030;15.396;2024-01-27T03:19:07;5.40;99.90
8400;DHT22;4237;47.030;15.396;2024-01-27T03:21:35;6.10;99.90
8400;DHT22;4237;47.030;15.396;2024-01-27T03:24:04;5.10;99.90
8400;DHT22;4237;47.030;15.396;2024-01-27T03:26:33;5.10;99.90
8400;DHT22;4237;47.030;15.396;2024-01-27T03:29:02;5.20;99.90
8400;DHT22;4237;47.030;15.396;2024-01-27T03:31:31;4.90;99.90
8400;DHT22;4237;47.030;15.396;2024-01-27T03:34:01;4.80;99.90
8400;DHT22;4237;47.030;15.396;2024-01-27T03:36:29;4.70;99.90
8400;DHT22;4237;47.030;15.396;2024-01-27T03:38:58;4.50;99.90
8400;DHT22;4237;47.030;15.396;2024-01-27T03:41:27;4.20;99.90
8400;DHT22;4237;47.030;15.396;2024-01-27T03:43:56;3.90;99.90
8400;DHT22;4237;47.030;15.396;2024-01-27T03:46:24;3.50;99.90
8400;DHT22;4237;47.030;15.396;2024-01-27T03:48:53;3.10;99.90
8400;DHT22;4237;47.030;15.396;2024-01-27T03:51:21;2.90;99.90
8400;DHT22;4237;47.030;15.396;2024-01-27T03:53:50;2.70;99.90
8400;DHT22;4237;47.030;15.396;2024-01-27T03:56:19;2.50;99.90
8400;DHT22;4237;47.030;15.396;2024-01-27T03:58:47;2.50;99.90
8400;DHT22;4237;47.030;15.396;2024-01-27T04:01:16;2.50;99.90
8400;DHT22;4237;47.030;15.396;2024-01-27T04:03:44;2.50;99.90
8400;DHT22;4237;47.030;15.396;2024-01-27T04:06:13;2.40;99.90
8400;DHT22;4237;47.030;15.396;2024-01-27T04:08:41;2.60;99.90
8400;DHT22;4237;47.030;15.396;2024-01-27T04:11:24;2.80;99.90
8400;DHT22;4237;47.030;15.396;2024-01-27T04:13:50;3.00;99.90
8400;DHT22;4237;47.030;15.396;2024-01-27T04:16:19;3.30;99.90
8400;DHT22;4237;47.030;15.396;2024-01-27T04:18:47;3.30;99.90
8400;DHT22;4237;47.030;15.396;2024-01-27T04:21:16;3.80;99.90
8400;DHT22;4237;47.030;15.396;2024-01-27T04:23:44;4.00;99.90
8400;DHT22;4237;47.030;15.396;2024-01-27T04:26:13;4.20;99.90
8400;DHT22;4237;47.030;15.396;2024-01-27T04:28:42;4.60;99.90
8400;DHT22;4237;47.030;15.396;2024-01-27T04:31:10;4.90;99.90
8400;DHT22;4237;47.030;15.396;2024-01-27T04:33:39;5.40;99.90
8400;DHT22;4237;47.030;15.396;2024-01-27T04:36:07;5.80;99.90
8400;DHT22;4237;47.030;15.396;2024-01-27T04:38:37;5.90;99.90
8400;DHT22;4237;47.030;15.396;2024-01-27T04:41:06;5.90;99.90
8400;DHT22;4237;47.030;15.396;2024-01-27T04:43:34;6.00;99.90
8400;DHT22;4237;47.030;15.396;2024-01-27T04:46:03;6.10;99.90
8400;DHT22;4237;47.030;15.396;2024-01-27T04:48:32;6.20;99.90
8400;DHT22;4237;47.030;15.396;2024-01-27T04:51:00;6.30;99.90
8400;DHT22;4237;47.030;15.396;2024-01-27T04:53:29;6.40;99.90
8400;DHT22;4237;47.030;15.396;2024-01-27T04:55:57;6.50;99.90
8400;DHT22;4237;47.030;15.396;2024-01-27T04:58:26;6.60;99.90
8400;DHT22;4237;47.030;15.396;2024-01-27T05:00:54;6.60;99.90
8400;DHT22;4237;47.030;15.396;2024-01-27T05:03:23;6.80;99.90
8400;DHT22;4237;47.030;15.396;2024-01-27T05:05:52;6.90;99.90
8400;DHT22;4237;47.030;15.396;2024-01-27T05:08:21;7.00;99.90
8400;DHT22;4237;47.030;15.396;2024-01-27T05:10:49;7.10;99.90
8400;DHT22;4237;47.030;15.396;2024-01-27T05:13:18;7.00;99.90
8400;DHT22;4237;47.030;15.396;2024-01-27T05:15:47;6.90;99.90
8400;DHT22;4237;47.030;15.396;2024-01-27T05:18:16;6.90;99.90
8400;DHT22;4237;47.030;15.396;2024-01-27T05:20:45;6.90;99.90
8400;DHT22;4237;47.030;15.396;2024-01-27T05:23:13;6.90;99.90
8400;DHT22;4237;47.030;15.396;2024-01-27T05:25:42;6.90;99.90
8400;DHT22;4237;47.030;15.396;2024-01-27T05:28:10;7.00;99.90
8400;DHT22;4237;47.030;15.396;2024-01-27T05:30:39;7.10;99.90
8400;DHT22;4237;47.030;15.396;2024-01-27T05:33:07;7.10;99.90
8400;DHT22;4237;47.030;15.396;2024-01-27T05:35:36;7.10;99.90
8400;DHT22;4237;47.030;15.396;2024-01-27T05:38:04;7.10;99.90
8400;DHT22;4237;47.030;15.396;2024-01-27T05:40:33;7.00;99.90
8400;DHT22;4237;47.030;15.396;2024-01-27T05:43:01;6.80;99.90
8400;DHT22;4237;47.030;15.396;2024-01-27T05:45:30;6.70;99.90
8400;DHT22;4237;47.030;15.396;2024-01-27T05:47:58;6.60;99.90
8400;DHT22;4237;47.030;15.396;2024-01-27T05:50:27;6.80;99.90
8400;DHT22;4237;47.030;15.396;2024-01-27T05:52:57;6.90;99.90
8400;DHT22;4237;47.030;15.396;2024-01-27T05:55:26;6.70;99.90
8400;DHT22;4237;47.030;15.396;2024-01-27T05:57:54;6.60;99.90
8400;DHT22;4237;47.030;15.396;2024-01-27T06:00:24;6.70;99.90
8400;DHT22;4237;47.030;15.396;2024-01-27T06:02:52;6.60;99.90
8400;DHT22;4237;47.030;15.396;2024-01-27T06:05:22;6.50;99.90
8400;DHT22;4237;47.030;15.396;2024-01-27T06:07:50;6.50;99.90
8400;DHT22;4237;47.030;15.396;2024-01-27T06:10:19;6.40;99.90
8400;DHT22;4237;47.030;15.396;2024-01-27T06:12:47;6.30;99.90
8400;DHT22;4237;47.030;15.396;2024-01-27T06:15:16;6.20;99.90
8400;DHT22;4237;47.030;15.396;2024-01-27T06:17:44;6.10;99.90
8400;DHT22;4237;47.030;15.396;2024-01-27T06:20:13;6.00;99.90
8400;DHT22;4237;47.030;15.396;2024-01-27T06:22:43;5.80;99.90
8400;DHT22;4237;47.030;15.396;2024-01-27T06:25:12;5.70;99.90
8400;DHT22;4237;47.030;15.396;2024-01-27T06:27:41;5.80;99.90
8400;DHT22;4237;47.030;15.396;2024-01-27T06:30:10;7.00;99.90
8400;DHT22;4237;47.030;15.396;2024-01-27T06:32:38;5.60;99.90
8400;DHT22;4237;47.030;15.396;2024-01-27T06:35:07;5.50;99.90
8400;DHT22;4237;47.030;15.396;2024-01-27T06:37:36;5.50;99.90
8400;DHT22;4237;47.030;15.396;2024-01-27T06:40:05;5.50;99.90
8400;DHT22;4237;47.030;15.396;2024-01-27T06:42:35;5.40;99.90
8400;DHT22;4237;47.030;15.396;2024-01-27T06:45:04;5.30;99.90
8400;DHT22;4237;47.030;15.396;2024-01-27T06:47:33;5.30;99.90
8400;DHT22;4237;47.030;15.396;2024-01-27T06:50:01;5.20;99.90
8400;DHT22;4237;47.030;15.396;2024-01-27T06:52:30;5.10;99.90
8400;DHT22;4237;47.030;15.396;2024-01-27T06:54:59;4.90;99.90
8400;DHT22;4237;47.030;15.396;2024-01-27T06:57:27;4.80;99.90
8400;DHT22;4237;47.030;15.396;2024-01-27T06:59:56;4.70;99.90
8400;DHT22;4237;47.030;15.396;2024-01-27T07:02:25;4.80;99.90
8400;DHT22;4237;47.030;15.396;2024-01-27T07:04:54;4.80;99.90
8400;DHT22;4237;47.030;15.396;2024-01-27T07:07:26;4.80;99.90
8400;DHT22;4237;47.030;15.396;2024-01-27T07:09:58;5.00;99.90
8400;DHT22;4237;47.030;15.396;2024-01-27T07:12:26;6.30;99.90
8400;DHT22;4237;47.030;15.396;2024-01-27T07:14:55;8.10;99.90
8400;DHT22;4237;47.030;15.396;2024-01-27T07:17:23;8.50;99.90
8400;DHT22;4237;47.030;15.396;2024-01-27T07:19:52;9.70;99.90
8400;DHT22;4237;47.030;15.396;2024-01-27T07:22:22;10.90;99.90
8400;DHT22;4237;47.030;15.396;2024-01-27T07:24:51;11.60;99.90
8400;DHT22;4237;47.030;15.396;2024-01-27T07:27:19;12.00;99.90
8400;DHT22;4237;47.030;15.396;2024-01-27T07:29:48;12.40;99.90
8400;DHT22;4237;47.030;15.396;2024-01-27T07:32:17;13.00;99.90
8400;DHT22;4237;47.030;15.396;2024-01-27T07:34:45;14.10;98.10
8400;DHT22;4237;47.030;15.396;2024-01-27T07:37:14;14.20;97.10
8400;DHT22;4237;47.030;15.396;2024-01-27T07:39:42;14.60;95.50
8400;DHT22;4237;47.030;15.396;2024-01-27T07:42:11;14.90;95.40
8400;DHT22;4237;47.030;15.396;2024-01-27T07:44:39;15.30;94.10
8400;DHT22;4237;47.030;15.396;2024-01-27T07:47:08;15.80;93.50
8400;DHT22;4237;47.030;15.396;2024-01-27T07:49:37;15.70;92.40
8400;DHT22;4237;47.030;15.396;2024-01-27T07:52:06;15.10;92.00
8400;DHT22;4237;47.030;15.396;2024-01-27T07:54:34;15.20;91.60
8400;DHT22;4237;47.030;15.396;2024-01-27T07:57:05;15.70;91.50
8400;DHT22;4237;47.030;15.396;2024-01-27T07:59:34;16.30;92.30
8400;DHT22;4237;47.030;15.396;2024-01-27T08:02:03;17.00;90.30
8400;DHT22;4237;47.030;15.396;2024-01-27T08:04:31;17.50;90.50
8400;DHT22;4237;47.030;15.396;2024-01-27T08:07:00;18.50;88.30
8400;DHT22;4237;47.030;15.396;2024-01-27T08:09:30;18.20;88.20
8400;DHT22;4237;47.030;15.396;2024-01-27T08:11:59;18.90;88.50
8400;DHT22;4237;47.030;15.396;2024-01-27T08:14:28;18.10;87.80
8400;DHT22;4237;47.030;15.396;2024-01-27T08:17:01;18.90;86.10
8400;DHT22;4237;47.030;15.396;2024-01-27T08:19:31;19.40;86.50
8400;DHT22;4237;47.030;15.396;2024-01-27T08:21:59;20.10;83.20
8400;DHT22;4237;47.030;15.396;2024-01-27T08:24:28;20.40;81.40
8400;DHT22;4237;47.030;15.396;2024-01-27T08:26:58;21.60;79.90
8400;DHT22;4237;47.030;15.396;2024-01-27T08:29:28;21.60;78.90
8400;DHT22;4237;47.030;15.396;2024-01-27T08:31:56;22.10;77.10
8400;DHT22;4237;47.030;15.396;2024-01-27T08:34:25;22.60;77.20
8400;DHT22;4237;47.030;15.396;2024-01-27T08:36:53;21.50;75.20
8400;DHT22;4237;47.030;15.396;2024-01-27T08:39:24;20.00;78.20
8400;DHT22;4237;47.030;15.396;2024-01-27T08:41:52;20.40;76.40
8400;DHT22;4237;47.030;15.396;2024-01-27T08:44:21;19.40;77.00
8400;DHT22;4237;47.030;15.396;2024-01-27T08:46:50;19.00;76.40
8400;DHT22;4237;47.030;15.396;2024-01-27T08:49:19;18.20;76.80
8400;DHT22;4237;47.030;15.396;2024-01-27T08:51:47;17.90;79.70
8400;DHT22;4237;47.030;15.396;2024-01-27T08:54:16;18.30;78.30
8400;DHT22;4237;47.030;15.396;2024-01-27T08:56:45;19.00;76.50
8400;DHT22;4237;47.030;15.396;2024-01-27T08:59:13;19.60;74.30
8400;DHT22;4237;47.030;15.396;2024-01-27T09:01:42;20.80;73.90
8400;DHT22;4237;47.030;15.396;2024-01-27T09:04:11;20.80;74.50
8400;DHT22;4237;47.030;15.396;2024-01-27T09:06:39;22.20;74.80
8400;DHT22;4237;47.030;15.396;2024-01-27T09:09:08;22.40;72.80
8400;DHT22;4237;47.030;15.396;2024-01-27T09:11:36;22.20;73.10
8400;DHT22;4237;47.030;15.396;2024-01-27T09:14:05;23.00;72.20
8400;DHT22;4237;47.030;15.396;2024-01-27T09:16:34;22.80;70.60
8400;DHT22;4237;47.030;15.396;2024-01-27T09:19:03;22.00;69.90
8400;DHT22;4237;47.030;15.396;2024-01-27T09:21:31;22.50;68.50
8400;DHT22;4237;47.030;15.396;2024-01-27T09:24:00;23.40;68.00
8400;DHT22;4237;47.030;15.396;2024-01-27T09:26:29;24.60;66.10
8400;DHT22;4237;47.030;15.396;2024-01-27T09:28:58;24.10;65.80
8400;DHT22;4237;47.030;15.396;2024-01-27T09:31:26;25.60;64.30
8400;DHT22;4237;47.030;15.396;2024-01-27T09:33:55;26.10;62.40
8400;DHT22;4237;47.030;15.396;2024-01-27T09:36:24;27.50;61.50
8400;DHT22;4237;47.030;15.396;2024-01-27T09:38:53;27.70;58.00
8400;DHT22;4237;47.030;15.396;2024-01-27T09:41:22;27.60;57.30
8400;DHT22;4237;47.030;15.396;2024-01-27T09:43:52;28.50;57.00
8400;DHT22;4237;47.030;15.396;2024-01-27T09:46:22;27.20;57.80
8400;DHT22;4237;47.030;15.396;2024-01-27T09:48:50;27.90;55.80
8400;DHT22;4237;47.030;15.396;2024-01-27T09:51:21;27.00;55.40
8400;DHT22;4237;47.030;15.396;2024-01-27T09:53:50;26.90;57.20
8400;DHT22;4237;47.030;15.396;2024-01-27T09:56:19;28.70;56.00
8400;DHT22;4237;47.030;15.396;2024-01-27T09:58:50;28.20;55.00
8400;DHT22;4237;47.030;15.396;2024-01-27T10:01:21;29.30;53.20
8400;DHT22;4237;47.030;15.396;2024-01-27T10:03:50;29.50;53.00
8400;DHT22;4237;47.030;15.396;2024-01-27T10:06:18;29.40;52.80
8400;DHT22;4237;47.030;15.396;2024-01-27T10:08:52;29.40;52.30
8400;DHT22;4237;47.030;15.396;2024-01-27T10:11:21;27.10;51.20
8400;DHT22;4237;47.030;15.396;2024-01-27T10:13:55;24.40;53.30
8400;DHT22;4237;47.030;15.396;2024-01-27T10:16:23;22.20;54.80
8400;DHT22;4237;47.030;15.396;2024-01-27T10:19:02;22.20;58.10
8400;DHT22;4237;47.030;15.396;2024-01-27T10:21:30;25.00;59.40
8400;DHT22;4237;47.030;15.396;2024-01-27T10:24:00;27.60;59.30
8400;DHT22;4237;47.030;15.396;2024-01-27T10:26:31;29.30;57.90
8400;DHT22;4237;47.030;15.396;2024-01-27T10:28:59;29.50;56.20
8400;DHT22;4237;47.030;15.396;2024-01-27T10:31:30;29.60;55.70
8400;DHT22;4237;47.030;15.396;2024-01-27T10:33:59;28.60;55.90
8400;DHT22;4237;47.030;15.396;2024-01-27T10:36:40;28.30;53.70
8400;DHT22;4237;47.030;15.396;2024-01-27T10:39:22;28.40;53.70
8400;DHT22;4237;47.030;15.396;2024-01-27T10:41:51;29.40;54.70
8400;DHT22;4237;47.030;15.396;2024-01-27T10:44:20;29.80;54.40
8400;DHT22;4237;47.030;15.396;2024-01-27T10:46:49;29.80;52.80
8400;DHT22;4237;47.030;15.396;2024-01-27T10:49:19;29.90;52.40
8400;DHT22;4237;47.030;15.396;2024-01-27T10:51:55;29.20;51.50
8400;DHT22;4237;47.030;15.396;2024-01-27T10:54:27;27.80;52.80
8400;DHT22;4237;47.030;15.396;2024-01-27T10:56:57;29.20;52.50
8400;DHT22;4237;47.030;15.396;2024-01-27T10:59:27;30.40;51.10
8400;DHT22;4237;47.030;15.396;2024-01-27T11:01:56;30.20;50.70
8400;DHT22;4237;47.030;15.396;2024-01-27T11:04:26;30.70;50.80
8400;DHT22;4237;47.030;15.396;2024-01-27T11:06:57;30.80;47.10
8400;DHT22;4237;47.030;15.396;2024-01-27T11:09:27;31.00;46.70
8400;DHT22;4237;47.030;15.396;2024-01-27T11:11:56;30.90;46.60
8400;DHT22;4237;47.030;15.396;2024-01-27T11:14:25;31.50;45.50
8400;DHT22;4237;47.030;15.396;2024-01-27T11:16:57;29.60;45.60
8400;DHT22;4237;47.030;15.396;2024-01-27T11:19:27;30.20;46.80
8400;DHT22;4237;47.030;15.396;2024-01-27T11:22:04;31.10;47.10
8400;DHT22;4237;47.030;15.396;2024-01-27T11:24:33;32.00;45.80
8400;DHT22;4237;47.030;15.396;2024-01-27T11:27:03;31.70;44.50
8400;DHT22;4237;47.030;15.396;2024-01-27T11:29:32;32.20;44.60
8400;DHT22;4237;47.030;15.396;2024-01-27T11:32:02;32.30;44.00
8400;DHT22;4237;47.030;15.396;2024-01-27T11:34:47;31.30;41.50
8400;DHT22;4237;47.030;15.396;2024-01-27T11:37:17;30.40;42.80
8400;DHT22;4237;47.030;15.396;2024-01-27T11:39:47;31.40;43.90
8400;DHT22;4237;47.030;15.396;2024-01-27T11:42:17;29.90;41.60
8400;DHT22;4237;47.030;15.396;2024-01-27T11:44:46;29.70;41.20
8400;DHT22;4237;47.030;15.396;2024-01-27T11:47:16;29.50;42.00
8400;DHT22;4237;47.030;15.396;2024-01-27T11:49:52;28.20;42.20
8400;DHT22;4237;47.030;15.396;2024-01-27T11:52:21;28.10;43.50
8400;DHT22;4237;47.030;15.396;2024-01-27T11:54:57;29.70;43.90
8400;DHT22;4237;47.030;15.396;2024-01-27T11:57:26;30.50;42.90
8400;DHT22;4237;47.030;15.396;2024-01-27T11:59:55;31.20;43.30
8400;DHT22;4237;47.030;15.396;2024-01-27T12:02:24;31.20;42.20
8400;DHT22;4237;47.030;15.396;2024-01-27T12:04:53;30.90;42.30
8400;DHT22;4237;47.030;15.396;2024-01-27T12:07:23;29.60;41.20
8400;DHT22;4237;47.030;15.396;2024-01-27T12:09:51;29.40;41.60
8400;DHT22;4237;47.030;15.396;2024-01-27T12:12:20;30.00;42.60
8400;DHT22;4237;47.030;15.396;2024-01-27T12:14:51;29.20;42.70
8400;DHT22;4237;47.030;15.396;2024-01-27T12:17:21;29.70;42.40
8400;DHT22;4237;47.030;15.396;2024-01-27T12:19:51;31.20;41.70
8400;DHT22;4237;47.030;15.396;2024-01-27T12:22:28;31.30;41.60
8400;DHT22;4237;47.030;15.396;2024-01-27T12:25:12;30.90;41.90
8400;DHT22;4237;47.030;15.396;2024-01-27T12:27:43;30.80;40.70
8400;DHT22;4237;47.030;15.396;2024-01-27T12:30:12;32.00;40.50
8400;DHT22;4237;47.030;15.396;2024-01-27T12:32:42;31.30;39.00
8400;DHT22;4237;47.030;15.396;2024-01-27T12:35:10;30.70;40.80
8400;DHT22;4237;47.030;15.396;2024-01-27T12:37:40;29.50;41.10
8400;DHT22;4237;47.030;15.396;2024-01-27T12:40:19;30.30;41.10
8400;DHT22;4237;47.030;15.396;2024-01-27T12:42:48;30.30;40.90
8400;DHT22;4237;47.030;15.396;2024-01-27T12:45:17;30.80;40.70
8400;DHT22;4237;47.030;15.396;2024-01-27T12:47:46;29.90;40.30
8400;DHT22;4237;47.030;15.396;2024-01-27T12:50:14;28.70;40.90
8400;DHT22;4237;47.030;15.396;2024-01-27T12:52:43;29.90;40.80
8400;DHT22;4237;47.030;15.396;2024-01-27T12:55:12;30.10;40.10
8400;DHT22;4237;47.030;15.396;2024-01-27T12:57:41;29.80;40.70
8400;DHT22;4237;47.030;15.396;2024-01-27T13:00:10;30.50;39.60
8400;DHT22;4237;47.030;15.396;2024-01-27T13:02:40;30.80;39.40
8400;DHT22;4237;47.030;15.396;2024-01-27T13:05:08;30.70;39.80
8400;DHT22;4237;47.030;15.396;2024-01-27T13:07:37;30.80;39.50
8400;DHT22;4237;47.030;15.396;2024-01-27T13:10:06;30.90;39.80
8400;DHT22;4237;47.030;15.396;2024-01-27T13:12:35;31.10;39.60
8400;DHT22;4237;47.030;15.396;2024-01-27T13:15:03;31.10;39.80
8400;DHT22;4237;47.030;15.396;2024-01-27T13:17:32;30.80;39.00
8400;DHT22;4237;47.030;15.396;2024-01-27T13:20:01;29.60;39.20
8400;DHT22;4237;47.030;15.396;2024-01-27T13:22:29;30.30;39.80
8400;DHT22;4237;47.030;15.396;2024-01-27T13:24:58;29.70;39.90
8400;DHT22;4237;47.030;15.396;2024-01-27T13:27:28;30.30;39.00
8400;DHT22;4237;47.030;15.396;2024-01-27T13:29:57;29.20;39.70
8400;DHT22;4237;47.030;15.396;2024-01-27T13:32:25;29.90;38.80
8400;DHT22;4237;47.030;15.396;2024-01-27T13:34:54;29.90;39.20
8400;DHT22;4237;47.030;15.396;2024-01-27T13:37:22;30.00;39.60
8400;DHT22;4237;47.030;15.396;2024-01-27T13:39:51;29.30;38.80
8400;DHT22;4237;47.030;15.396;2024-01-27T13:42:20;29.60;38.80
8400;DHT22;4237;47.030;15.396;2024-01-27T13:44:48;29.40;39.20
8400;DHT22;4237;47.030;15.396;2024-01-27T13:47:17;29.70;38.60
8400;DHT22;4237;47.030;15.396;2024-01-27T13:49:46;29.50;38.30
8400;DHT22;4237;47.030;15.396;2024-01-27T13:52:15;29.10;39.10
8400;DHT22;4237;47.030;15.396;2024-01-27T13:54:43;28.00;38.90
8400;DHT22;4237;47.030;15.396;2024-01-27T13:57:12;27.90;40.50
8400;DHT22;4237;47.030;15.396;2024-01-27T13:59:41;28.90;40.10
8400;DHT22;4237;47.030;15.396;2024-01-27T14:02:09;28.80;39.30
8400;DHT22;4237;47.030;15.396;2024-01-27T14:04:38;28.50;39.20
8400;DHT22;4237;47.030;15.396;2024-01-27T14:07:06;28.60;39.40
8400;DHT22;4237;47.030;15.396;2024-01-27T14:09:37;27.90;39.60
8400;DHT22;4237;47.030;15.396;2024-01-27T14:12:06;27.80;39.70
8400;DHT22;4237;47.030;15.396;2024-01-27T14:14:35;27.70;39.80
8400;DHT22;4237;47.030;15.396;2024-01-27T14:17:05;27.60;40.20
8400;DHT22;4237;47.030;15.396;2024-01-27T14:19:33;27.30;40.00
8400;DHT22;4237;47.030;15.396;2024-01-27T14:22:02;27.40;39.60
8400;DHT22;4237;47.030;15.396;2024-01-27T14:24:31;26.90;40.60
8400;DHT22;4237;47.030;15.396;2024-01-27T14:27:01;26.90;40.00
8400;DHT22;4237;47.030;15.396;2024-01-27T14:29:31;26.60;39.80
8400;DHT22;4237;47.030;15.396;2024-01-27T14:32:02;26.20;40.20
8400;DHT22;4237;47.030;15.396;2024-01-27T14:34:31;25.50;40.20
8400;DHT22;4237;47.030;15.396;2024-01-27T14:37:00;25.40;40.70
8400;DHT22;4237;47.030;15.396;2024-01-27T14:39:30;24.10;40.70
8400;DHT22;4237;47.030;15.396;2024-01-27T14:41:59;24.20;41.20
8400;DHT22;4237;47.030;15.396;2024-01-27T14:44:29;23.40;40.70
8400;DHT22;4237;47.030;15.396;2024-01-27T14:46:59;23.00;41.20
8400;DHT22;4237;47.030;15.396;2024-01-27T14:49:27;22.20;41.70
8400;DHT22;4237;47.030;15.396;2024-01-27T14:51:56;22.00;41.60
8400;DHT22;4237;47.030;15.396;2024-01-27T14:54:25;22.00;42.40
8400;DHT22;4237;47.030;15.396;2024-01-27T14:56:54;21.40;42.40
8400;DHT22;4237;47.030;15.396;2024-01-27T14:59:22;20.90;42.70
8400;DHT22;4237;47.030;15.396;2024-01-27T15:01:51;19.90;43.20
8400;DHT22;4237;47.030;15.396;2024-01-27T15:04:20;19.40;44.00
8400;DHT22;4237;47.030;15.396;2024-01-27T15:06:48;19.00;45.10
8400;DHT22;4237;47.030;15.396;2024-01-27T15:09:17;18.30;44.80
8400;DHT22;4237;47.030;15.396;2024-01-27T15:11:45;16.90;45.50
8400;DHT22;4237;47.030;15.396;2024-01-27T15:14:14;15.30;47.20
8400;DHT22;4237;47.030;15.396;2024-01-27T15:16:43;14.00;49.00
8400;DHT22;4237;47.030;15.396;2024-01-27T15:19:12;12.80;50.90
8400;DHT22;4237;47.030;15.396;2024-01-27T15:21:40;12.10;52.10
8400;DHT22;4237;47.030;15.396;2024-01-27T15:24:09;11.50;53.00
8400;DHT22;4237;47.030;15.396;2024-01-27T15:26:37;11.20;54.00
8400;DHT22;4237;47.030;15.396;2024-01-27T15:29:06;10.80;55.50
8400;DHT22;4237;47.030;15.396;2024-01-27T15:31:35;10.50;55.60
8400;DHT22;4237;47.030;15.396;2024-01-27T15:34:03;10.10;56.30
8400;DHT22;4237;47.030;15.396;2024-01-27T15:36:34;9.80;58.20
8400;DHT22;4237;47.030;15.396;2024-01-27T15:39:02;9.50;58.60
8400;DHT22;4237;47.030;15.396;2024-01-27T15:41:31;9.40;59.50
8400;DHT22;4237;47.030;15.396;2024-01-27T15:43:59;9.20;61.10
8400;DHT22;4237;47.030;15.396;2024-01-27T15:46:29;9.10;60.30
8400;DHT22;4237;47.030;15.396;2024-01-27T15:48:58;8.80;61.10
8400;DHT22;4237;47.030;15.396;2024-01-27T15:51:26;8.60;61.10
8400;DHT22;4237;47.030;15.396;2024-01-27T15:53:55;8.50;61.50
8400;DHT22;4237;47.030;15.396;2024-01-27T15:56:23;8.30;63.30
8400;DHT22;4237;47.030;15.396;2024-01-27T15:58:52;8.10;65.10
8400;DHT22;4237;47.030;15.396;2024-01-27T16:01:21;8.00;66.30
8400;DHT22;4237;47.030;15.396;2024-01-27T16:03:49;7.70;69.30
8400;DHT22;4237;47.030;15.396;2024-01-27T16:06:19;7.60;69.70